sensor_id;sensor_type;location;lat;lon;timestamp;temperature;humidity
53904;DHT22;39812;52.430;16.936;2023-06-24T00:01:15;17.30;99.90
53904;DHT22;39812;52.430;16.936;2023-06-24T00:03:40;17.30;99.90
53904;DHT22;39812;52.430;16.936;2023-06-24T00:06:06;17.30;99.90
53904;DHT22;39812;52.430;16.936;2023-06-24T00:08:32;17.30;99.90
53904;DHT22;39812;52.430;16.936;2023-06-24T00:11:01;17.30;99.90
53904;DHT22;39812;52.430;16.936;2023-06-24T00:13:27;17.30;99.90
53904;DHT22;39812;52.430;16.936;2023-06-24T00:15:54;17.30;99.90
53904;DHT22;39812;52.430;16.936;2023-06-24T00:18:20;17.30;99.90
53904;DHT22;39812;52.430;16.936;2023-06-24T00:20:50;17.30;99.90
53904;DHT22;39812;52.430;16.936;2023-06-24T00:23:17;17.30;99.90
53904;DHT22;39812;52.430;16.936;2023-06-24T00:25:46;17.30;99.90
53904;DHT22;39812;52.430;16.936;2023-06-24T00:28:11;17.30;99.90
53904;DHT22;39812;52.430;16.936;2023-06-24T00:30:37;17.30;99.90
53904;DHT22;39812;52.430;16.936;2023-06-24T00:33:02;17.30;99.90
53904;DHT22;39812;52.430;16.936;2023-06-24T00:35:28;17.30;99.90
53904;DHT22;39812;52.430;16.936;2023-06-24T00:37:54;17.30;99.90
53904;DHT22;39812;52.430;16.936;2023-06-24T00:40:23;17.30;99.90
53904;DHT22;39812;52.430;16.936;2023-06-24T00:42:49;17.30;99.90
53904;DHT22;39812;52.430;16.936;2023-06-24T00:45:15;17.30;99.90
53904;DHT22;39812;52.430;16.936;2023-06-24T00:47:43;17.30;99.90
53904;DHT22;39812;52.430;16.936;2023-06-24T00:50:09;17.30;99.90
53904;DHT22;39812;52.430;16.936;2023-06-24T00:52:37;17.30;99.90
53904;DHT22;39812;52.430;16.936;2023-06-24T00:55:11;17.20;99.90
53904;DHT22;39812;52.430;16.936;2023-06-24T00:58:00;17.20;99.90
53904;DHT22;39812;52.430;16.936;2023-06-24T01:00:26;17.20;99.90
53904;DHT22;39812;52.430;16.936;2023-06-24T01:02:52;17.20;99.90
53904;DHT22;39812;52.430;16.936;2023-06-24T01:05:18;17.20;99.90
53904;DHT22;39812;52.430;16.936;2023-06-24T01:07:49;17.20;99.90
53904;DHT22;39812;52.430;16.936;2023-06-24T01:10:20;17.20;99.90
53904;DHT22;39812;52.430;16.936;2023-06-24T01:12:47;17.20;99.90
53904;DHT22;39812;52.430;16.936;2023-06-24T01:15:13;17.30;99.90
53904;DHT22;39812;52.430;16.936;2023-06-24T01:18:04;17.30;99.90
53904;DHT22;39812;52.430;16.936;2023-06-24T01:20:45;17.40;99.90
53904;DHT22;39812;52.430;16.936;2023-06-24T01:37:10;17.40;99.90
53904;DHT22;39812;52.430;16.936;2023-06-24T01:42:33;17.40;99.90
53904;DHT22;39812;52.430;16.936;2023-06-24T01:45:01;17.40;99.90
53904;DHT22;39812;52.430;16.936;2023-06-24T01:47:27;17.40;99.90
53904;DHT22;39812;52.430;16.936;2023-06-24T01:49:54;17.40;99.90
53904;DHT22;39812;52.430;16.936;2023-06-24T01:52:23;17.30;99.90
53904;DHT22;39812;52.430;16.936;2023-06-24T01:54:52;17.30;99.90
53904;DHT22;39812;52.430;16.936;2023-06-24T01:57:20;17.30;99.90
53904;DHT22;39812;52.430;16.936;2023-06-24T01:59:48;17.30;99.90
53904;DHT22;39812;52.430;16.936;2023-06-24T02:02:14;17.30;99.90
53904;DHT22;39812;52.430;16.936;2023-06-24T02:04:40;17.30;99.90
53904;DHT22;39812;52.430;16.936;2023-06-24T02:07:08;17.30;99.90
53904;DHT22;39812;52.430;16.936;2023-06-24T02:09:34;17.30;99.90
53904;DHT22;39812;52.430;16.936;2023-06-24T02:12:01;17.30;99.90
53904;DHT22;39812;52.430;16.936;2023-06-24T02:14:29;17.20;99.90
53904;DHT22;39812;52.430;16.936;2023-06-24T02:17:00;17.20;99.90
53904;DHT22;39812;52.430;16.936;2023-06-24T02:19:29;17.20;99.90
53904;DHT22;39812;52.430;16.936;2023-06-24T02:21:57;17.30;99.90
53904;DHT22;39812;52.430;16.936;2023-06-24T02:24:24;17.20;99.90
53904;DHT22;39812;52.430;16.936;2023-06-24T02:26:50;17.20;99.90
53904;DHT22;39812;52.430;16.936;2023-06-24T02:29:17;17.10;99.90
53904;DHT22;39812;52.430;16.936;2023-06-24T02:31:43;17.20;99.90
53904;DHT22;39812;52.430;16.936;2023-06-24T02:34:09;17.10;99.90
53904;DHT22;39812;52.430;16.936;2023-06-24T02:36:34;17.10;99.90
53904;DHT22;39812;52.430;16.936;2023-06-24T02:39:00;17.00;99.90
53904;DHT22;39812;52.430;16.936;2023-06-24T02:41:26;17.00;99.90
53904;DHT22;39812;52.430;16.936;2023-06-24T02:43:51;17.00;99.90
53904;DHT22;39812;52.430;16.936;2023-06-24T02:46:18;16.90;99.90
53904;DHT22;39812;52.430;16.936;2023-06-24T02:48:45;16.90;99.90
53904;DHT22;39812;52.430;16.936;2023-06-24T02:51:12;16.90;99.90
53904;DHT22;39812;52.430;16.936;2023-06-24T02:53:38;16.90;99.90
53904;DHT22;39812;52.430;16.936;2023-06-24T02:56:06;16.90;99.90
53904;DHT22;39812;52.430;16.936;2023-06-24T02:58:33;16.90;99.90
53904;DHT22;39812;52.430;16.936;2023-06-24T03:01:00;16.90;99.90
53904;DHT22;39812;52.430;16.936;2023-06-24T03:03:28;16.90;99.90
53904;DHT22;39812;52.430;16.936;2023-06-24T03:05:54;16.90;99.90
53904;DHT22;39812;52.430;16.936;2023-06-24T03:08:22;16.90;99.90
53904;DHT22;39812;52.430;16.936;2023-06-24T03:10:50;16.90;99.90
53904;DHT22;39812;52.430;16.936;2023-06-24T03:13:15;16.90;99.90
53904;DHT22;39812;52.430;16.936;2023-06-24T03:15:41;16.90;99.90
53904;DHT22;39812;52.430;16.936;2023-06-24T03:18:07;16.90;99.90
53904;DHT22;39812;52.430;16.936;2023-06-24T03:20:33;16.90;99.90
53904;DHT22;39812;52.430;16.936;2023-06-24T03:23:05;16.90;99.90
53904;DHT22;39812;52.430;16.936;2023-06-24T03:25:32;16.90;99.90
53904;DHT22;39812;52.430;16.936;2023-06-24T03:27:57;16.90;99.90
53904;DHT22;39812;52.430;16.936;2023-06-24T03:30:23;16.90;99.90
53904;DHT22;39812;52.430;16.936;2023-06-24T03:32:49;16.80;99.90
53904;DHT22;39812;52.430;16.936;2023-06-24T03:35:15;16.80;99.90
53904;DHT22;39812;52.430;16.936;2023-06-24T03:37:40;16.80;99.90
53904;DHT22;39812;52.430;16.936;2023-06-24T03:40:06;16.80;99.90
53904;DHT22;39812;52.430;16.936;2023-06-24T03:42:33;16.80;99.90
53904;DHT22;39812;52.430;16.936;2023-06-24T03:44:59;16.80;99.90
53904;DHT22;39812;52.430;16.936;2023-06-24T03:47:24;16.90;99.90
53904;DHT22;39812;52.430;16.936;2023-06-24T03:49:50;16.90;99.90
53904;DHT22;39812;52.430;16.936;2023-06-24T03:52:17;16.80;99.90
53904;DHT22;39812;52.430;16.936;2023-06-24T03:54:42;16.90;99.90
53904;DHT22;39812;52.430;16.936;2023-06-24T03:57:08;16.90;99.90
53904;DHT22;39812;52.430;16.936;2023-06-24T03:59:34;17.00;99.90
53904;DHT22;39812;52.430;16.936;2023-06-24T04:02:00;17.00;99.90
53904;DHT22;39812;52.430;16.936;2023-06-24T04:04:26;17.00;99.90
53904;DHT22;39812;52.430;16.936;2023-06-24T04:06:51;17.00;99.90
53904;DHT22;39812;52.430;16.936;2023-06-24T04:09:17;17.10;99.90
53904;DHT22;39812;52.430;16.936;2023-06-24T04:11:43;17.10;99.90
53904;DHT22;39812;52.430;16.936;2023-06-24T04:14:08;17.20;99.90
53904;DHT22;39812;52.430;16.936;2023-06-24T04:16:35;17.20;99.90
53904;DHT22;39812;52.430;16.936;2023-06-24T04:19:01;17.20;99.90
53904;DHT22;39812;52.430;16.936;2023-06-24T04:21:27;17.20;99.90
53904;DHT22;39812;52.430;16.936;2023-06-24T04:23:52;17.20;99.90
53904;DHT22;39812;52.430;16.936;2023-06-24T04:26:18;17.20;99.90
53904;DHT22;39812;52.430;16.936;2023-06-24T04:28:44;17.20;99.90
53904;DHT22;39812;52.430;16.936;2023-06-24T04:31:10;17.20;99.90
53904;DHT22;39812;52.430;16.936;2023-06-24T04:33:35;17.20;99.90
53904;DHT22;39812;52.430;16.936;2023-06-24T04:36:01;17.30;99.90
53904;DHT22;39812;52.430;16.936;2023-06-24T04:38:26;17.30;99.90
53904;DHT22;39812;52.430;16.936;2023-06-24T04:40:52;17.30;99.90
53904;DHT22;39812;52.430;16.936;2023-06-24T04:43:18;17.30;99.90
53904;DHT22;39812;52.430;16.936;2023-06-24T04:45:44;17.40;99.90
53904;DHT22;39812;52.430;16.936;2023-06-24T04:48:09;17.40;99.90
53904;DHT22;39812;52.430;16.936;2023-06-24T04:50:35;17.50;99.90
53904;DHT22;39812;52.430;16.936;2023-06-24T04:53:00;17.60;99.90
53904;DHT22;39812;52.430;16.936;2023-06-24T04:55:27;17.70;99.90
53904;DHT22;39812;52.430;16.936;2023-06-24T04:57:55;17.70;99.90
53904;DHT22;39812;52.430;16.936;2023-06-24T05:00:21;17.90;99.90
53904;DHT22;39812;52.430;16.936;2023-06-24T05:02:49;17.90;99.90
53904;DHT22;39812;52.430;16.936;2023-06-24T05:05:15;18.00;99.90
53904;DHT22;39812;52.430;16.936;2023-06-24T05:07:41;18.10;99.90
53904;DHT22;39812;52.430;16.936;2023-06-24T05:10:07;18.10;99.90
53904;DHT22;39812;52.430;16.936;2023-06-24T05:12:32;18.00;99.90
53904;DHT22;39812;52.430;16.936;2023-06-24T05:14:58;18.10;99.90
53904;DHT22;39812;52.430;16.936;2023-06-24T05:17:24;18.20;99.90
53904;DHT22;39812;52.430;16.936;2023-06-24T05:19:49;18.20;99.90
53904;DHT22;39812;52.430;16.936;2023-06-24T05:22:15;18.10;99.90
53904;DHT22;39812;52.430;16.936;2023-06-24T05:24:40;18.10;99.90
53904;DHT22;39812;52.430;16.936;2023-06-24T05:27:07;18.00;99.90
53904;DHT22;39812;52.430;16.936;2023-06-24T05:29:36;18.10;99.90
53904;DHT22;39812;52.430;16.936;2023-06-24T05:32:01;18.30;99.90
53904;DHT22;39812;52.430;16.936;2023-06-24T05:34:29;18.40;99.90
53904;DHT22;39812;52.430;16.936;2023-06-24T05:36:55;18.40;99.90
53904;DHT22;39812;52.430;16.936;2023-06-24T05:39:21;18.60;99.90
53904;DHT22;39812;52.430;16.936;2023-06-24T05:41:46;18.60;99.90
53904;DHT22;39812;52.430;16.936;2023-06-24T05:44:14;18.50;99.90
53904;DHT22;39812;52.430;16.936;2023-06-24T05:46:40;18.70;99.90
53904;DHT22;39812;52.430;16.936;2023-06-24T05:49:05;18.70;99.90
53904;DHT22;39812;52.430;16.936;2023-06-24T05:51:31;18.80;99.90
53904;DHT22;39812;52.430;16.936;2023-06-24T05:53:57;18.90;99.90
53904;DHT22;39812;52.430;16.936;2023-06-24T05:56:23;19.00;99.90
53904;DHT22;39812;52.430;16.936;2023-06-24T05:58:49;19.10;99.90
53904;DHT22;39812;52.430;16.936;2023-06-24T06:01:14;19.20;99.70
53904;DHT22;39812;52.430;16.936;2023-06-24T06:03:40;19.40;99.30
53904;DHT22;39812;52.430;16.936;2023-06-24T06:06:06;19.50;98.60
53904;DHT22;39812;52.430;16.936;2023-06-24T06:08:32;19.40;98.80
53904;DHT22;39812;52.430;16.936;2023-06-24T06:10:58;19.50;98.20
53904;DHT22;39812;52.430;16.936;2023-06-24T06:13:24;19.40;98.50
53904;DHT22;39812;52.430;16.936;2023-06-24T06:15:50;19.50;98.40
53904;DHT22;39812;52.430;16.936;2023-06-24T06:18:15;19.70;97.60
53904;DHT22;39812;52.430;16.936;2023-06-24T06:20:41;19.80;97.50
53904;DHT22;39812;52.430;16.936;2023-06-24T06:23:07;19.90;97.00
53904;DHT22;39812;52.430;16.936;2023-06-24T06:25:32;19.90;97.20
53904;DHT22;39812;52.430;16.936;2023-06-24T06:27:58;20.20;96.50
53904;DHT22;39812;52.430;16.936;2023-06-24T06:30:24;20.40;95.90
53904;DHT22;39812;52.430;16.936;2023-06-24T06:32:49;20.50;95.00
53904;DHT22;39812;52.430;16.936;2023-06-24T06:35:15;20.40;95.00
53904;DHT22;39812;52.430;16.936;2023-06-24T06:37:41;20.30;94.80
53904;DHT22;39812;52.430;16.936;2023-06-24T06:40:07;20.50;94.90
53904;DHT22;39812;52.430;16.936;2023-06-24T06:42:33;20.60;94.60
53904;DHT22;39812;52.430;16.936;2023-06-24T06:44:58;20.60;93.70
53904;DHT22;39812;52.430;16.936;2023-06-24T06:47:24;20.30;93.70
53904;DHT22;39812;52.430;16.936;2023-06-24T06:49:49;20.10;94.40
53904;DHT22;39812;52.430;16.936;2023-06-24T06:52:15;20.30;94.50
53904;DHT22;39812;52.430;16.936;2023-06-24T06:54:41;20.40;94.50
53904;DHT22;39812;52.430;16.936;2023-06-24T06:57:07;20.40;93.60
53904;DHT22;39812;52.430;16.936;2023-06-24T06:59:34;20.30;94.30
53904;DHT22;39812;52.430;16.936;2023-06-24T07:01:59;20.10;94.40
53904;DHT22;39812;52.430;16.936;2023-06-24T07:04:25;20.10;94.80
53904;DHT22;39812;52.430;16.936;2023-06-24T07:06:51;20.00;95.30
53904;DHT22;39812;52.430;16.936;2023-06-24T07:09:16;19.80;94.40
53904;DHT22;39812;52.430;16.936;2023-06-24T07:11:42;19.70;95.10
53904;DHT22;39812;52.430;16.936;2023-06-24T07:14:08;19.50;94.70
53904;DHT22;39812;52.430;16.936;2023-06-24T07:16:34;19.20;95.50
53904;DHT22;39812;52.430;16.936;2023-06-24T07:19:00;19.10;96.10
53904;DHT22;39812;52.430;16.936;2023-06-24T07:21:25;19.10;96.40
53904;DHT22;39812;52.430;16.936;2023-06-24T07:23:51;19.10;96.40
53904;DHT22;39812;52.430;16.936;2023-06-24T07:26:16;19.10;96.90
53904;DHT22;39812;52.430;16.936;2023-06-24T07:28:42;19.10;96.50
53904;DHT22;39812;52.430;16.936;2023-06-24T07:31:07;19.10;96.50
53904;DHT22;39812;52.430;16.936;2023-06-24T07:33:33;19.20;96.40
53904;DHT22;39812;52.430;16.936;2023-06-24T07:35:59;19.30;96.10
53904;DHT22;39812;52.430;16.936;2023-06-24T07:38:25;19.40;95.90
53904;DHT22;39812;52.430;16.936;2023-06-24T07:40:50;19.60;95.80
53904;DHT22;39812;52.430;16.936;2023-06-24T07:43:16;19.70;95.60
53904;DHT22;39812;52.430;16.936;2023-06-24T07:45:41;19.90;94.90
53904;DHT22;39812;52.430;16.936;2023-06-24T07:48:07;19.90;95.00
53904;DHT22;39812;52.430;16.936;2023-06-24T07:50:33;19.90;94.20
53904;DHT22;39812;52.430;16.936;2023-06-24T07:53:00;20.00;93.90
53904;DHT22;39812;52.430;16.936;2023-06-24T07:55:26;19.90;94.30
53904;DHT22;39812;52.430;16.936;2023-06-24T07:57:51;19.90;94.50
53904;DHT22;39812;52.430;16.936;2023-06-24T08:00:17;20.00;94.90
53904;DHT22;39812;52.430;16.936;2023-06-24T08:02:43;20.40;94.70
53904;DHT22;39812;52.430;16.936;2023-06-24T08:05:08;20.70;93.20
53904;DHT22;39812;52.430;16.936;2023-06-24T08:07:35;20.80;93.10
53904;DHT22;39812;52.430;16.936;2023-06-24T08:10:01;20.80;92.20
53904;DHT22;39812;52.430;16.936;2023-06-24T08:12:26;20.90;91.70
53904;DHT22;39812;52.430;16.936;2023-06-24T08:14:52;21.20;92.00
53904;DHT22;39812;52.430;16.936;2023-06-24T08:17:18;21.30;91.30
53904;DHT22;39812;52.430;16.936;2023-06-24T08:19:43;21.30;88.80
53904;DHT22;39812;52.430;16.936;2023-06-24T08:22:09;21.40;89.80
53904;DHT22;39812;52.430;16.936;2023-06-24T08:24:34;21.60;87.80
53904;DHT22;39812;52.430;16.936;2023-06-24T08:27:00;21.80;87.10
53904;DHT22;39812;52.430;16.936;2023-06-24T08:29:26;22.00;87.20
53904;DHT22;39812;52.430;16.936;2023-06-24T08:31:51;22.40;86.60
53904;DHT22;39812;52.430;16.936;2023-06-24T08:34:17;22.20;85.50
53904;DHT22;39812;52.430;16.936;2023-06-24T08:36:42;22.30;84.70
53904;DHT22;39812;52.430;16.936;2023-06-24T08:39:08;22.40;83.30
53904;DHT22;39812;52.430;16.936;2023-06-24T08:41:33;22.30;85.00
53904;DHT22;39812;52.430;16.936;2023-06-24T08:43:59;22.50;82.60
53904;DHT22;39812;52.430;16.936;2023-06-24T08:46:25;22.40;83.30
53904;DHT22;39812;52.430;16.936;2023-06-24T08:48:59;22.00;81.30
53904;DHT22;39812;52.430;16.936;2023-06-24T08:51:29;21.70;83.30
53904;DHT22;39812;52.430;16.936;2023-06-24T08:53:57;21.70;84.10
53904;DHT22;39812;52.430;16.936;2023-06-24T08:56:23;22.00;84.10
53904;DHT22;39812;52.430;16.936;2023-06-24T08:58:50;22.20;83.40
53904;DHT22;39812;52.430;16.936;2023-06-24T09:01:16;22.10;83.00
53904;DHT22;39812;52.430;16.936;2023-06-24T09:03:42;22.30;83.90
53904;DHT22;39812;52.430;16.936;2023-06-24T09:06:08;22.40;83.70
53904;DHT22;39812;52.430;16.936;2023-06-24T09:08:34;22.40;81.70
53904;DHT22;39812;52.430;16.936;2023-06-24T09:11:01;22.30;83.00
53904;DHT22;39812;52.430;16.936;2023-06-24T09:13:36;22.20;83.20
53904;DHT22;39812;52.430;16.936;2023-06-24T09:16:12;22.30;83.40
53904;DHT22;39812;52.430;16.936;2023-06-24T09:18:39;22.60;82.10
53904;DHT22;39812;52.430;16.936;2023-06-24T09:21:05;22.60;82.20
53904;DHT22;39812;52.430;16.936;2023-06-24T09:23:35;22.80;81.00
53904;DHT22;39812;52.430;16.936;2023-06-24T09:26:02;23.30;80.40
53904;DHT22;39812;52.430;16.936;2023-06-24T09:28:28;23.50;79.90
53904;DHT22;39812;52.430;16.936;2023-06-24T09:31:09;23.70;78.80
53904;DHT22;39812;52.430;16.936;2023-06-24T09:33:35;23.40;79.40
53904;DHT22;39812;52.430;16.936;2023-06-24T09:36:04;23.00;79.30
53904;DHT22;39812;52.430;16.936;2023-06-24T09:38:37;22.70;78.30
53904;DHT22;39812;52.430;16.936;2023-06-24T09:41:04;22.80;76.80
53904;DHT22;39812;52.430;16.936;2023-06-24T09:43:33;23.10;76.50
53904;DHT22;39812;52.430;16.936;2023-06-24T09:45:59;23.30;76.10
53904;DHT22;39812;52.430;16.936;2023-06-24T09:48:26;23.80;76.10
53904;DHT22;39812;52.430;16.936;2023-06-24T09:50:52;23.90;76.50
53904;DHT22;39812;52.430;16.936;2023-06-24T09:53:18;24.00;76.40
53904;DHT22;39812;52.430;16.936;2023-06-24T09:55:44;23.80;75.80
53904;DHT22;39812;52.430;16.936;2023-06-24T09:58:13;23.10;75.30
53904;DHT22;39812;52.430;16.936;2023-06-24T10:00:41;23.00;75.00
53904;DHT22;39812;52.430;16.936;2023-06-24T10:03:07;23.10;76.40
53904;DHT22;39812;52.430;16.936;2023-06-24T10:05:33;23.10;74.80
53904;DHT22;39812;52.430;16.936;2023-06-24T10:07:59;23.20;75.50
53904;DHT22;39812;52.430;16.936;2023-06-24T10:10:25;22.90;73.80
53904;DHT22;39812;52.430;16.936;2023-06-24T10:12:50;22.90;74.20
53904;DHT22;39812;52.430;16.936;2023-06-24T10:15:16;23.10;74.30
53904;DHT22;39812;52.430;16.936;2023-06-24T10:17:42;23.60;73.70
53904;DHT22;39812;52.430;16.936;2023-06-24T10:20:08;23.70;72.80
53904;DHT22;39812;52.430;16.936;2023-06-24T10:22:34;23.80;72.40
53904;DHT22;39812;52.430;16.936;2023-06-24T10:25:04;23.90;73.30
53904;DHT22;39812;52.430;16.936;2023-06-24T10:27:38;23.30;73.50
53904;DHT22;39812;52.430;16.936;2023-06-24T10:30:04;23.40;72.80
53904;DHT22;39812;52.430;16.936;2023-06-24T10:32:40;23.70;72.20
53904;DHT22;39812;52.430;16.936;2023-06-24T10:35:26;23.90;72.00
53904;DHT22;39812;52.430;16.936;2023-06-24T10:38:01;23.80;72.20
53904;DHT22;39812;52.430;16.936;2023-06-24T10:40:38;24.10;69.90
53904;DHT22;39812;52.430;16.936;2023-06-24T10:45:52;24.10;70.90
53904;DHT22;39812;52.430;16.936;2023-06-24T10:48:18;23.90;71.30
53904;DHT22;39812;52.430;16.936;2023-06-24T10:50:47;24.10;71.00
53904;DHT22;39812;52.430;16.936;2023-06-24T10:53:13;24.30;70.70
53904;DHT22;39812;52.430;16.936;2023-06-24T10:55:39;24.60;72.40
53904;DHT22;39812;52.430;16.936;2023-06-24T10:58:12;24.40;71.90
53904;DHT22;39812;52.430;16.936;2023-06-24T11:00:39;24.10;72.70
53904;DHT22;39812;52.430;16.936;2023-06-24T11:03:12;24.40;72.70
53904;DHT22;39812;52.430;16.936;2023-06-24T11:05:42;24.40;70.40
53904;DHT22;39812;52.430;16.936;2023-06-24T11:08:09;24.50;70.30
53904;DHT22;39812;52.430;16.936;2023-06-24T11:10:45;24.40;70.00
53904;DHT22;39812;52.430;16.936;2023-06-24T11:13:11;24.30;67.60
53904;DHT22;39812;52.430;16.936;2023-06-24T11:15:38;24.40;68.10
53904;DHT22;39812;52.430;16.936;2023-06-24T11:18:04;25.10;67.00
53904;DHT22;39812;52.430;16.936;2023-06-24T11:20:30;24.80;68.50
53904;DHT22;39812;52.430;16.936;2023-06-24T11:22:56;24.70;69.80
53904;DHT22;39812;52.430;16.936;2023-06-24T11:25:22;24.90;68.50
53904;DHT22;39812;52.430;16.936;2023-06-24T11:27:50;25.40;68.40
53904;DHT22;39812;52.430;16.936;2023-06-24T11:30:16;25.00;67.20
53904;DHT22;39812;52.430;16.936;2023-06-24T11:32:43;25.80;64.90
53904;DHT22;39812;52.430;16.936;2023-06-24T11:35:11;25.70;64.50
53904;DHT22;39812;52.430;16.936;2023-06-24T11:37:40;26.70;63.50
53904;DHT22;39812;52.430;16.936;2023-06-24T11:40:07;27.40;62.40
53904;DHT22;39812;52.430;16.936;2023-06-24T11:42:38;28.00;62.10
53904;DHT22;39812;52.430;16.936;2023-06-24T11:45:07;27.10;62.70
53904;DHT22;39812;52.430;16.936;2023-06-24T11:47:34;26.20;64.60
53904;DHT22;39812;52.430;16.936;2023-06-24T11:50:00;27.50;64.20
53904;DHT22;39812;52.430;16.936;2023-06-24T11:52:46;28.50;60.00
53904;DHT22;39812;52.430;16.936;2023-06-24T11:57:53;29.90;56.50
53904;DHT22;39812;52.430;16.936;2023-06-24T12:00:24;31.70;54.30
53904;DHT22;39812;52.430;16.936;2023-06-24T12:02:58;32.50;52.20
53904;DHT22;39812;52.430;16.936;2023-06-24T12:08:14;31.60;52.50
53904;DHT22;39812;52.430;16.936;2023-06-24T12:10:40;33.50;50.90
53904;DHT22;39812;52.430;16.936;2023-06-24T12:13:06;32.60;50.70
53904;DHT22;39812;52.430;16.936;2023-06-24T12:15:34;34.00;50.90
53904;DHT22;39812;52.430;16.936;2023-06-24T12:18:00;33.80;48.90
53904;DHT22;39812;52.430;16.936;2023-06-24T12:20:29;33.70;49.40
53904;DHT22;39812;52.430;16.936;2023-06-24T12:22:55;34.70;49.50
53904;DHT22;39812;52.430;16.936;2023-06-24T12:25:21;35.30;47.80
53904;DHT22;39812;52.430;16.936;2023-06-24T12:27:47;34.90;47.60
53904;DHT22;39812;52.430;16.936;2023-06-24T12:30:13;33.50;49.30
53904;DHT22;39812;52.430;16.936;2023-06-24T12:32:39;34.10;49.80
53904;DHT22;39812;52.430;16.936;2023-06-24T12:35:05;35.00;48.80
53904;DHT22;39812;52.430;16.936;2023-06-24T12:37:32;34.80;48.90
53904;DHT22;39812;52.430;16.936;2023-06-24T12:39:59;35.10;47.20
53904;DHT22;39812;52.430;16.936;2023-06-24T12:42:25;34.50;47.90
53904;DHT22;39812;52.430;16.936;2023-06-24T12:44:50;35.40;45.30
53904;DHT22;39812;52.430;16.936;2023-06-24T12:47:16;35.60;45.70
53904;DHT22;39812;52.430;16.936;2023-06-24T12:49:42;36.30;44.40
53904;DHT22;39812;52.430;16.936;2023-06-24T12:52:07;35.10;45.10
53904;DHT22;39812;52.430;16.936;2023-06-24T12:54:33;37.20;43.90
53904;DHT22;39812;52.430;16.936;2023-06-24T12:56:59;38.20;43.20
53904;DHT22;39812;52.430;16.936;2023-06-24T12:59:25;37.60;43.90
53904;DHT22;39812;52.430;16.936;2023-06-24T13:01:51;37.80;43.40
53904;DHT22;39812;52.430;16.936;2023-06-24T13:04:16;36.30;44.10
53904;DHT22;39812;52.430;16.936;2023-06-24T13:06:45;35.70;45.90
53904;DHT22;39812;52.430;16.936;2023-06-24T13:09:11;36.50;45.00
53904;DHT22;39812;52.430;16.936;2023-06-24T13:11:36;34.90;46.30
53904;DHT22;39812;52.430;16.936;2023-06-24T13:14:03;36.40;45.30
53904;DHT22;39812;52.430;16.936;2023-06-24T13:16:28;35.50;44.80
53904;DHT22;39812;52.430;16.936;2023-06-24T13:18:54;35.40;45.70
53904;DHT22;39812;52.430;16.936;2023-06-24T13:21:20;35.30;44.70
53904;DHT22;39812;52.430;16.936;2023-06-24T13:23:45;36.80;43.90
53904;DHT22;39812;52.430;16.936;2023-06-24T13:26:12;38.40;42.60
53904;DHT22;39812;52.430;16.936;2023-06-24T13:28:37;38.00;42.90
53904;DHT22;39812;52.430;16.936;2023-06-24T13:31:03;38.40;42.60
53904;DHT22;39812;52.430;16.936;2023-06-24T13:33:28;38.90;42.10
53904;DHT22;39812;52.430;16.936;2023-06-24T13:35:55;37.30;42.80
53904;DHT22;39812;52.430;16.936;2023-06-24T13:38:21;36.80;43.80
53904;DHT22;39812;52.430;16.936;2023-06-24T13:40:47;37.50;43.70
53904;DHT22;39812;52.430;16.936;2023-06-24T13:43:13;37.70;42.40
53904;DHT22;39812;52.430;16.936;2023-06-24T13:45:38;37.80;42.50
53904;DHT22;39812;52.430;16.936;2023-06-24T13:48:04;37.00;43.10
53904;DHT22;39812;52.430;16.936;2023-06-24T13:50:30;36.20;43.30
53904;DHT22;39812;52.430;16.936;2023-06-24T13:52:56;35.80;45.10
53904;DHT22;39812;52.430;16.936;2023-06-24T13:55:21;35.60;44.20
53904;DHT22;39812;52.430;16.936;2023-06-24T13:57:47;37.50;44.40
53904;DHT22;39812;52.430;16.936;2023-06-24T14:00:13;38.80;44.00
53904;DHT22;39812;52.430;16.936;2023-06-24T14:02:40;38.00;42.70
53904;DHT22;39812;52.430;16.936;2023-06-24T14:05:06;35.90;44.50
53904;DHT22;39812;52.430;16.936;2023-06-24T14:07:33;31.80;49.10
53904;DHT22;39812;52.430;16.936;2023-06-24T14:09:59;30.20;52.10
53904;DHT22;39812;52.430;16.936;2023-06-24T14:12:24;33.20;49.90
53904;DHT22;39812;52.430;16.936;2023-06-24T14:14:51;35.20;46.60
53904;DHT22;39812;52.430;16.936;2023-06-24T14:17:16;36.10;45.80
53904;DHT22;39812;52.430;16.936;2023-06-24T14:19:42;36.50;44.30
53904;DHT22;39812;52.430;16.936;2023-06-24T14:22:08;38.10;42.80
53904;DHT22;39812;52.430;16.936;2023-06-24T14:24:35;37.40;42.80
53904;DHT22;39812;52.430;16.936;2023-06-24T14:27:04;38.10;42.20
53904;DHT22;39812;52.430;16.936;2023-06-24T14:29:30;38.40;42.10
53904;DHT22;39812;52.430;16.936;2023-06-24T14:31:56;40.30;40.40
53904;DHT22;39812;52.430;16.936;2023-06-24T14:34:21;37.40;41.00
53904;DHT22;39812;52.430;16.936;2023-06-24T14:36:47;34.00;44.90
53904;DHT22;39812;52.430;16.936;2023-06-24T14:39:15;35.10;45.60
53904;DHT22;39812;52.430;16.936;2023-06-24T14:41:43;37.10;44.30
53904;DHT22;39812;52.430;16.936;2023-06-24T14:44:10;39.90;41.60
53904;DHT22;39812;52.430;16.936;2023-06-24T14:46:36;40.90;41.00
53904;DHT22;39812;52.430;16.936;2023-06-24T14:49:01;42.40;40.10
53904;DHT22;39812;52.430;16.936;2023-06-24T14:51:27;44.70;39.20
53904;DHT22;39812;52.430;16.936;2023-06-24T14:53:53;44.50;37.10
53904;DHT22;39812;52.430;16.936;2023-06-24T14:56:18;36.80;41.10
53904;DHT22;39812;52.430;16.936;2023-06-24T14:58:44;32.90;45.90
53904;DHT22;39812;52.430;16.936;2023-06-24T15:01:10;34.60;47.90
53904;DHT22;39812;52.430;16.936;2023-06-24T15:03:35;36.20;44.60
53904;DHT22;39812;52.430;16.936;2023-06-24T15:06:01;32.00;46.80
53904;DHT22;39812;52.430;16.936;2023-06-24T15:08:26;30.10;50.10
53904;DHT22;39812;52.430;16.936;2023-06-24T15:10:52;31.70;49.90
53904;DHT22;39812;52.430;16.936;2023-06-24T15:13:18;34.40;46.80
53904;DHT22;39812;52.430;16.936;2023-06-24T15:15:44;35.80;45.20
53904;DHT22;39812;52.430;16.936;2023-06-24T15:18:10;38.40;44.00
53904;DHT22;39812;52.430;16.936;2023-06-24T15:20:36;40.90;41.10
53904;DHT22;39812;52.430;16.936;2023-06-24T15:23:01;39.60;41.00
53904;DHT22;39812;52.430;16.936;2023-06-24T15:25:27;38.50;42.00
53904;DHT22;39812;52.430;16.936;2023-06-24T15:27:53;39.00;41.50
53904;DHT22;39812;52.430;16.936;2023-06-24T15:30:19;38.10;41.60
53904;DHT22;39812;52.430;16.936;2023-06-24T15:32:44;37.10;43.50
53904;DHT22;39812;52.430;16.936;2023-06-24T15:35:12;36.30;43.60
53904;DHT22;39812;52.430;16.936;2023-06-24T15:37:38;36.30;44.00